createdAt,value
2022-08-26T00:01:19.137Z,20.38
2022-08-26T00:03:55.769Z,20.35
2022-08-26T00:06:22.092Z,20.32
2022-08-26T00:08:49.009Z,20.31
2022-08-26T00:11:15.390Z,20.29
2022-08-26T00:13:56.907Z,20.27
2022-08-26T00:16:25.035Z,20.25
2022-08-26T00:18:52.462Z,20.23
2022-08-26T00:21:19.691Z,20.22
2022-08-26T00:23:46.330Z,20.20
2022-08-26T00:26:13.748Z,20.18
2022-08-26T00:28:40.605Z,20.16
2022-08-26T00:31:07.268Z,20.13
2022-08-26T00:33:33.849Z,20.12
2022-08-26T00:36:00.961Z,20.11
2022-08-26T00:38:27.560Z,20.08
2022-08-26T00:40:56.086Z,20.05
2022-08-26T00:43:24.846Z,20.04
2022-08-26T00:45:55.772Z,20.01
2022-08-26T00:48:24.806Z,19.99
2022-08-26T00:50:57.923Z,19.96
2022-08-26T00:53:28.537Z,19.92
2022-08-26T00:56:07.173Z,19.88
2022-08-26T00:58:37.110Z,19.83
2022-08-26T01:01:04.398Z,19.82
2022-08-26T01:03:33.588Z,19.80
2022-08-26T01:06:00.964Z,19.78
2022-08-26T01:08:27.464Z,19.76
2022-08-26T01:10:55.893Z,19.74
2022-08-26T01:13:22.614Z,19.71
2022-08-26T01:15:53.221Z,19.67
2022-08-26T01:18:19.943Z,19.63
2022-08-26T01:21:02.993Z,19.56
2022-08-26T01:23:37.423Z,19.53
2022-08-26T01:26:19.679Z,19.51
2022-08-26T01:28:50.596Z,19.47
2022-08-26T01:31:21.237Z,19.43
2022-08-26T01:34:01.363Z,19.40
2022-08-26T01:36:28.361Z,19.36
2022-08-26T01:38:54.744Z,19.34
2022-08-26T01:41:27.499Z,19.32
2022-08-26T01:43:56.609Z,19.31
2022-08-26T01:46:25.687Z,19.29
2022-08-26T01:48:54.660Z,19.27
2022-08-26T01:51:22.958Z,19.25
2022-08-26T01:53:50.057Z,19.24
2022-08-26T01:56:16.448Z,19.23
2022-08-26T01:58:46.694Z,19.22
2022-08-26T02:01:14.383Z,19.22
2022-08-26T02:04:02.972Z,19.22
2022-08-26T02:06:29.606Z,19.22
2022-08-26T02:08:59.672Z,19.22
2022-08-26T02:11:27.083Z,19.20
2022-08-26T02:13:57.693Z,19.19
2022-08-26T02:16:26.836Z,19.17
2022-08-26T02:18:53.762Z,19.14
2022-08-26T02:21:20.724Z,19.08
2022-08-26T02:23:47.141Z,19.01
2022-08-26T02:26:18.123Z,18.96
2022-08-26T02:28:48.891Z,18.93
2022-08-26T02:31:15.823Z,18.90
2022-08-26T02:33:43.181Z,18.89
2022-08-26T02:36:10.758Z,18.88
2022-08-26T02:38:39.756Z,18.88
2022-08-26T02:41:06.292Z,18.87
2022-08-26T02:43:34.421Z,18.87
2022-08-26T02:46:02.376Z,18.88
2022-08-26T02:48:29.351Z,18.88
2022-08-26T02:50:58.368Z,18.88
2022-08-26T02:53:25.545Z,18.88
2022-08-26T02:55:52.543Z,18.87
2022-08-26T02:58:20.044Z,18.86
2022-08-26T03:00:53.085Z,18.84
2022-08-26T03:03:22.481Z,18.83
2022-08-26T03:05:50.906Z,18.82
2022-08-26T03:08:17.564Z,18.78
2022-08-26T03:10:43.884Z,18.79
2022-08-26T03:13:10.366Z,18.78
2022-08-26T03:15:36.861Z,18.76
2022-08-26T03:18:04.604Z,18.74
2022-08-26T03:20:31.455Z,18.74
2022-08-26T03:22:57.770Z,18.73
2022-08-26T03:25:25.956Z,18.73
2022-08-26T03:27:52.702Z,18.72
2022-08-26T03:30:38.035Z,18.70
2022-08-26T03:33:04.911Z,18.66
2022-08-26T03:35:32.451Z,18.62
2022-08-26T03:37:59.143Z,18.59
2022-08-26T03:40:25.716Z,18.56
2022-08-26T03:42:55.576Z,18.55
2022-08-26T03:45:21.925Z,18.57
2022-08-26T03:47:48.511Z,18.59
2022-08-26T03:50:22.619Z,18.61
2022-08-26T03:52:51.448Z,18.62
2022-08-26T03:55:19.751Z,18.63
2022-08-26T03:57:50.919Z,18.65
2022-08-26T04:00:18.481Z,18.67
2022-08-26T04:02:48.058Z,18.68
2022-08-26T04:05:15.350Z,18.70
2022-08-26T04:07:42.724Z,18.72
2022-08-26T04:10:11.289Z,18.77
2022-08-26T04:12:38.535Z,18.84
2022-08-26T04:15:08.828Z,18.88
2022-08-26T04:17:35.845Z,18.93
2022-08-26T04:20:05.043Z,18.98
2022-08-26T04:22:33.380Z,19.03
2022-08-26T04:25:01.083Z,19.11
2022-08-26T04:27:27.455Z,19.20
2022-08-26T04:29:55.277Z,19.29
2022-08-26T04:32:21.963Z,19.40
2022-08-26T04:34:48.862Z,19.48
2022-08-26T04:37:15.683Z,19.54
2022-08-26T04:39:42.296Z,19.62
2022-08-26T04:42:10.750Z,19.71
2022-08-26T04:44:37.838Z,19.83
2022-08-26T04:47:05.925Z,19.96
2022-08-26T04:49:35.095Z,20.06
2022-08-26T04:52:04.780Z,20.15
2022-08-26T04:54:31.317Z,20.24
2022-08-26T04:56:57.880Z,20.35
2022-08-26T04:59:24.678Z,20.48
2022-08-26T05:01:55.585Z,20.63
2022-08-26T05:04:22.249Z,20.81
2022-08-26T05:06:49.170Z,20.99
2022-08-26T05:09:17.761Z,21.17
2022-08-26T05:11:45.326Z,21.34
2022-08-26T05:14:15.556Z,21.49
2022-08-26T05:16:41.990Z,21.56
2022-08-26T05:19:09.298Z,21.66
2022-08-26T05:21:35.884Z,21.78
2022-08-26T05:24:02.401Z,21.91
2022-08-26T05:26:31.245Z,22.05
2022-08-26T05:28:58.305Z,22.15
2022-08-26T05:31:28.514Z,22.29
2022-08-26T05:33:56.881Z,22.46
2022-08-26T05:36:26.919Z,22.62
2022-08-26T05:38:54.433Z,22.80
2022-08-26T05:41:34.483Z,23.05
2022-08-26T05:44:06.109Z,23.19
2022-08-26T05:46:33.763Z,22.95
2022-08-26T05:49:01.203Z,22.78
2022-08-26T05:51:29.225Z,22.73
2022-08-26T05:53:58.227Z,22.79
2022-08-26T05:56:26.679Z,22.86
2022-08-26T05:58:54.371Z,22.89
2022-08-26T06:01:24.987Z,22.88
2022-08-26T06:03:54.025Z,22.85
2022-08-26T06:06:27.355Z,22.84
2022-08-26T06:08:55.371Z,22.88
2022-08-26T06:11:24.748Z,22.91
2022-08-26T06:13:57.105Z,22.94
2022-08-26T06:16:27.810Z,22.96
2022-08-26T06:18:54.368Z,22.96
2022-08-26T06:21:22.813Z,22.96
2022-08-26T06:24:10.764Z,22.99
2022-08-26T06:26:37.502Z,23.03
2022-08-26T06:29:05.065Z,23.07
2022-08-26T06:31:33.702Z,23.10
2022-08-26T06:34:00.855Z,23.18
2022-08-26T06:36:29.976Z,23.30
2022-08-26T06:38:58.607Z,23.40
2022-08-26T06:41:25.171Z,23.54
2022-08-26T06:43:52.084Z,23.72
2022-08-26T06:46:21.010Z,23.91
2022-08-26T06:48:49.211Z,24.12
2022-08-26T06:51:22.440Z,24.32
2022-08-26T06:53:52.041Z,24.53
2022-08-26T06:56:23.928Z,24.74
2022-08-26T06:58:51.706Z,24.94
2022-08-26T07:01:21.469Z,25.12
2022-08-26T07:03:50.157Z,25.30
2022-08-26T07:06:18.845Z,25.51
2022-08-26T07:08:46.602Z,25.70
2022-08-26T07:11:14.574Z,25.86
2022-08-26T07:13:41.096Z,26.04
2022-08-26T07:16:12.398Z,26.24
2022-08-26T07:18:41.753Z,26.46
2022-08-26T07:21:14.212Z,26.69
2022-08-26T07:23:41.349Z,26.93
2022-08-26T07:26:12.426Z,27.11
2022-08-26T07:28:38.869Z,27.22
2022-08-26T07:31:07.396Z,27.35
2022-08-26T07:33:38.112Z,27.48
2022-08-26T07:36:07.704Z,27.57
2022-08-26T07:38:34.342Z,27.72
2022-08-26T07:41:01.301Z,27.93
2022-08-26T07:43:28.423Z,28.13
2022-08-26T07:45:56.129Z,28.37
2022-08-26T07:48:23.718Z,28.70
2022-08-26T07:50:52.006Z,29.01
2022-08-26T07:53:20.955Z,29.33
2022-08-26T07:55:48.763Z,29.59
2022-08-26T07:58:15.642Z,29.76
2022-08-26T08:00:42.573Z,29.89
2022-08-26T08:03:10.236Z,29.98
2022-08-26T08:05:37.004Z,30.03
2022-08-26T08:08:26.263Z,30.09
2022-08-26T08:10:55.471Z,30.24
2022-08-26T08:13:23.625Z,30.44
2022-08-26T08:15:50.425Z,30.65
2022-08-26T08:18:20.493Z,30.75
2022-08-26T08:21:04.835Z,30.89
2022-08-26T08:23:34.085Z,31.04
2022-08-26T08:26:06.140Z,31.18
2022-08-26T08:28:35.621Z,31.35
2022-08-26T08:31:02.643Z,31.52
2022-08-26T08:33:29.866Z,31.68
2022-08-26T08:35:57.623Z,31.76
2022-08-26T08:38:24.706Z,31.92
2022-08-26T08:40:51.104Z,32.16
2022-08-26T08:43:29.299Z,32.32
2022-08-26T08:45:58.805Z,32.60
2022-08-26T08:48:29.120Z,33.94
2022-08-26T08:51:21.425Z,36.09
2022-08-26T08:53:50.952Z,38.73
2022-08-26T08:56:31.664Z,40.72
2022-08-26T08:59:17.696Z,42.62
2022-08-26T09:01:52.477Z,44.59
2022-08-26T09:04:29.588Z,46.38
2022-08-26T09:06:59.245Z,48.11
2022-08-26T09:09:39.148Z,49.91
2022-08-26T09:12:12.091Z,51.93
2022-08-26T09:14:38.631Z,53.62
2022-08-26T09:17:24.708Z,54.92
2022-08-26T09:20:03.658Z,56.24
2022-08-26T09:22:33.835Z,56.36
2022-08-26T09:25:01.425Z,56.11
2022-08-26T09:27:50.540Z,55.71
2022-08-26T09:30:26.682Z,54.57
2022-08-26T09:33:01.826Z,53.30
2022-08-26T09:35:30.931Z,52.63
2022-08-26T09:37:58.154Z,52.37
2022-08-26T09:40:34.913Z,52.09
2022-08-26T09:43:07.079Z,51.46
2022-08-26T09:45:35.191Z,50.71
2022-08-26T09:48:02.703Z,50.42
2022-08-26T09:50:32.536Z,50.37
2022-08-26T09:53:12.823Z,50.24
2022-08-26T09:55:42.239Z,50.09
2022-08-26T09:58:13.927Z,49.73
2022-08-26T10:00:55.507Z,49.38
2022-08-26T10:03:28.615Z,49.19
2022-08-26T10:06:07.678Z,49.05
2022-08-26T10:08:47.428Z,49.25
2022-08-26T10:11:37.105Z,49.39
2022-08-26T10:14:12.251Z,49.69
2022-08-26T10:16:49.133Z,50.14
2022-08-26T10:19:24.980Z,50.31
2022-08-26T10:22:00.919Z,50.10
2022-08-26T10:24:46.584Z,49.92
2022-08-26T10:27:51.075Z,50.20
2022-08-26T10:30:22.411Z,50.09
2022-08-26T10:32:57.578Z,49.54
2022-08-26T10:35:26.374Z,49.06
2022-08-26T10:37:56.097Z,48.26
2022-08-26T10:40:40.809Z,47.36
2022-08-26T10:43:17.244Z,46.91
2022-08-26T10:45:50.539Z,46.67
2022-08-26T10:48:24.895Z,46.39
2022-08-26T10:50:51.464Z,46.18
2022-08-26T10:54:00.018Z,46.02
2022-08-26T10:56:39.905Z,45.42
2022-08-26T10:59:12.440Z,44.85
2022-08-26T11:01:51.122Z,44.11
2022-08-26T11:04:28.274Z,43.47
2022-08-26T11:07:29.584Z,42.99
2022-08-26T11:10:16.257Z,42.71
2022-08-26T11:12:44.667Z,42.98
2022-08-26T11:15:18.728Z,43.35
2022-08-26T11:17:50.735Z,43.64
2022-08-26T11:20:35.949Z,44.12
2022-08-26T11:23:23.385Z,44.69
2022-08-26T11:26:18.935Z,45.02
2022-08-26T11:29:03.043Z,44.89
2022-08-26T11:31:30.079Z,44.56
2022-08-26T11:34:08.718Z,44.07
2022-08-26T11:36:46.284Z,43.56
2022-08-26T11:39:27.861Z,43.23
2022-08-26T11:42:15.909Z,42.80
2022-08-26T11:44:49.565Z,42.29
2022-08-26T11:47:26.076Z,41.67
2022-08-26T11:50:09.832Z,40.97
2022-08-26T11:52:36.626Z,40.27
2022-08-26T11:55:14.847Z,39.74
2022-08-26T11:57:53.545Z,39.25
2022-08-26T12:00:22.512Z,38.75
2022-08-26T12:02:50.961Z,38.29
2022-08-26T12:05:30.917Z,37.93
2022-08-26T12:08:02.400Z,37.61
2022-08-26T12:10:32.005Z,37.17
2022-08-26T12:13:00.502Z,36.77
2022-08-26T12:15:29.743Z,36.50
2022-08-26T12:17:58.606Z,36.34
2022-08-26T12:20:47.621Z,36.25
2022-08-26T12:23:45.393Z,36.27
2022-08-26T12:26:29.200Z,36.41
2022-08-26T12:29:18.086Z,36.36
2022-08-26T12:31:47.433Z,36.30
2022-08-26T12:34:18.631Z,36.35
2022-08-26T12:36:55.082Z,36.37
2022-08-26T12:39:37.249Z,36.35
2022-08-26T12:42:20.160Z,36.41
2022-08-26T12:44:53.934Z,36.55
2022-08-26T12:47:32.704Z,36.46
2022-08-26T12:50:43.931Z,36.36
2022-08-26T12:53:10.339Z,36.14
2022-08-26T12:56:24.074Z,35.89
2022-08-26T12:59:10.300Z,35.49
2022-08-26T13:01:42.342Z,35.24
2022-08-26T13:04:45.508Z,35.13
2022-08-26T13:07:23.625Z,34.98
2022-08-26T13:09:52.420Z,34.72
2022-08-26T13:12:34.280Z,34.47
2022-08-26T13:15:01.771Z,34.29
2022-08-26T13:17:29.172Z,34.11
2022-08-26T13:20:02.731Z,33.96
2022-08-26T13:22:30.786Z,33.78
2022-08-26T13:24:57.346Z,33.65
2022-08-26T13:27:26.471Z,33.55
2022-08-26T13:29:54.169Z,33.46
2022-08-26T13:32:21.883Z,33.34
2022-08-26T13:34:51.463Z,33.24
2022-08-26T13:37:21.565Z,33.06
2022-08-26T13:40:00.631Z,32.88
2022-08-26T13:42:27.267Z,32.70
2022-08-26T13:44:57.353Z,32.50
2022-08-26T13:47:25.221Z,32.30
2022-08-26T13:49:53.721Z,32.14
2022-08-26T13:52:27.294Z,31.96
2022-08-26T13:54:59.452Z,31.83
2022-08-26T13:57:27.616Z,31.73
2022-08-26T13:59:55.849Z,31.62
2022-08-26T14:02:22.359Z,31.53
2022-08-26T14:04:48.758Z,31.45
2022-08-26T14:07:15.678Z,31.38
2022-08-26T14:09:41.950Z,31.32
2022-08-26T14:12:08.444Z,31.28
2022-08-26T14:14:34.883Z,31.29
2022-08-26T14:17:01.486Z,31.37
2022-08-26T14:19:29.378Z,31.47
2022-08-26T14:21:56.397Z,31.57
2022-08-26T14:24:23.093Z,31.66
2022-08-26T14:26:49.718Z,31.77
2022-08-26T14:29:16.805Z,31.86
2022-08-26T14:31:44.917Z,31.92
2022-08-26T14:34:12.415Z,32.03
2022-08-26T14:36:38.743Z,32.12
2022-08-26T14:39:08.795Z,32.18
2022-08-26T14:41:40.902Z,32.17
2022-08-26T14:44:10.761Z,32.13
2022-08-26T14:46:42.517Z,32.11
2022-08-26T14:49:10.669Z,32.15
2022-08-26T14:51:37.994Z,32.22
2022-08-26T14:54:14.112Z,32.34
2022-08-26T14:56:42.629Z,32.39
2022-08-26T14:59:09.719Z,32.34
2022-08-26T15:01:36.327Z,32.30
2022-08-26T15:04:02.956Z,32.17
2022-08-26T15:06:31.192Z,32.02
2022-08-26T15:08:58.344Z,31.86
2022-08-26T15:11:24.860Z,31.73
2022-08-26T15:13:52.404Z,31.60
2022-08-26T15:16:18.800Z,31.49
2022-08-26T15:18:45.273Z,31.43
2022-08-26T15:21:11.820Z,31.34
2022-08-26T15:23:38.769Z,31.25
2022-08-26T15:26:10.619Z,31.20
2022-08-26T15:28:37.963Z,31.15
2022-08-26T15:31:05.962Z,31.09
2022-08-26T15:33:34.380Z,31.01
2022-08-26T15:36:01.677Z,30.94
2022-08-26T15:38:33.036Z,30.90
2022-08-26T15:41:03.145Z,30.81
2022-08-26T15:43:30.471Z,30.70
2022-08-26T15:45:57.081Z,30.62
2022-08-26T15:48:24.125Z,30.56
2022-08-26T15:50:56.649Z,30.49
2022-08-26T15:53:23.849Z,30.42
2022-08-26T15:55:53.290Z,30.34
2022-08-26T15:58:22.312Z,30.26
2022-08-26T16:00:48.596Z,30.20
2022-08-26T16:03:14.941Z,30.14
2022-08-26T16:05:45.276Z,30.08
2022-08-26T16:08:13.367Z,30.02
2022-08-26T16:10:47.774Z,29.94
2022-08-26T16:13:18.420Z,29.86
2022-08-26T16:15:45.510Z,29.77
2022-08-26T16:18:13.228Z,29.69
2022-08-26T16:20:50.134Z,29.60
2022-08-26T16:23:34.688Z,29.48
2022-08-26T16:26:08.264Z,29.39
2022-08-26T16:28:37.882Z,29.29
2022-08-26T16:31:05.877Z,29.19
2022-08-26T16:33:32.723Z,29.09
2022-08-26T16:35:59.052Z,28.99
2022-08-26T16:38:25.775Z,28.90
2022-08-26T16:40:52.740Z,28.79
2022-08-26T16:43:19.150Z,28.70
2022-08-26T16:45:45.537Z,28.62
2022-08-26T16:48:12.104Z,28.51
2022-08-26T16:50:40.138Z,28.41
2022-08-26T16:53:07.487Z,28.33
2022-08-26T16:55:34.736Z,28.23
2022-08-26T16:58:01.753Z,28.14
2022-08-26T17:00:30.807Z,28.04
2022-08-26T17:02:58.653Z,27.94
2022-08-26T17:05:26.348Z,27.84
2022-08-26T17:07:54.721Z,27.73
2022-08-26T17:10:22.633Z,27.63
2022-08-26T17:12:49.610Z,27.54
2022-08-26T17:15:17.137Z,27.43
2022-08-26T17:17:44.254Z,27.32
2022-08-26T17:20:13.773Z,27.22
2022-08-26T17:22:46.608Z,27.11
2022-08-26T17:25:23.769Z,27.01
2022-08-26T17:27:50.306Z,26.90
2022-08-26T17:30:17.648Z,26.81
2022-08-26T17:32:45.795Z,26.71
2022-08-26T17:35:13.459Z,26.61
2022-08-26T17:37:40.258Z,26.49
2022-08-26T17:40:09.436Z,26.36
2022-08-26T17:42:37.479Z,26.21
2022-08-26T17:45:05.401Z,26.05
2022-08-26T17:47:33.338Z,25.89
2022-08-26T17:50:00.738Z,25.74
2022-08-26T17:52:28.548Z,25.58
2022-08-26T17:54:55.679Z,25.43
2022-08-26T17:57:23.295Z,25.29
2022-08-26T17:59:49.982Z,25.15
2022-08-26T18:02:20.411Z,25.00
2022-08-26T18:04:46.936Z,24.86
2022-08-26T18:07:13.430Z,24.72
2022-08-26T18:09:40.726Z,24.59
2022-08-26T18:12:09.731Z,24.45
2022-08-26T18:14:36.718Z,24.33
2022-08-26T18:17:03.408Z,24.21
2022-08-26T18:19:30.691Z,24.08
2022-08-26T18:21:57.297Z,23.94
2022-08-26T18:24:24.816Z,23.81
2022-08-26T18:26:51.314Z,23.71
2022-08-26T18:29:18.978Z,23.58
2022-08-26T18:31:47.733Z,23.47
2022-08-26T18:34:15.964Z,23.36
2022-08-26T18:36:43.406Z,23.25
2022-08-26T18:39:12.000Z,23.15
2022-08-26T18:41:49.893Z,23.03
2022-08-26T18:44:18.007Z,22.91
2022-08-26T18:46:45.616Z,22.80
2022-08-26T18:49:13.760Z,22.69
2022-08-26T18:51:40.767Z,22.59
2022-08-26T18:54:07.704Z,22.50
2022-08-26T18:56:36.073Z,22.40
2022-08-26T18:59:03.912Z,22.30
2022-08-26T19:01:31.023Z,22.21
2022-08-26T19:03:59.026Z,22.17
2022-08-26T19:06:26.856Z,22.13
2022-08-26T19:08:53.610Z,22.02
2022-08-26T19:11:31.566Z,21.95
2022-08-26T19:14:00.690Z,21.93
2022-08-26T19:16:28.136Z,21.88
2022-08-26T19:18:55.384Z,21.86
2022-08-26T19:21:22.540Z,22.25
2022-08-26T19:23:49.432Z,22.66
2022-08-26T19:26:16.515Z,22.95
2022-08-26T19:28:43.109Z,23.15
2022-08-26T19:31:11.957Z,23.19
2022-08-26T19:33:39.873Z,22.83
2022-08-26T19:36:11.453Z,22.45
2022-08-26T19:38:41.726Z,22.14
2022-08-26T19:41:20.595Z,22.01
2022-08-26T19:43:47.259Z,22.35
2022-08-26T19:46:19.856Z,22.66
2022-08-26T19:48:47.478Z,22.87
2022-08-26T19:51:18.335Z,23.00
2022-08-26T19:53:46.086Z,23.02
2022-08-26T19:56:13.396Z,22.63
2022-08-26T19:58:40.269Z,22.20
2022-08-26T20:01:07.711Z,21.97
2022-08-26T20:03:35.615Z,22.23
2022-08-26T20:06:03.246Z,22.49
2022-08-26T20:08:29.767Z,22.66
2022-08-26T20:10:59.301Z,22.76
2022-08-26T20:13:25.595Z,22.82
2022-08-26T20:15:52.012Z,22.87
2022-08-26T20:18:36.981Z,22.92
2022-08-26T20:21:22.138Z,22.94
2022-08-26T20:23:50.759Z,22.95
2022-08-26T20:26:17.838Z,22.96
2022-08-26T20:28:44.474Z,22.96
2022-08-26T20:31:10.966Z,22.89
2022-08-26T20:33:46.380Z,22.44
2022-08-26T20:36:14.650Z,21.91
2022-08-26T20:38:41.063Z,21.60
2022-08-26T20:41:07.546Z,21.78
2022-08-26T20:43:34.001Z,22.02
2022-08-26T20:46:00.952Z,22.16
2022-08-26T20:48:27.816Z,22.26
2022-08-26T20:51:01.012Z,22.31
2022-08-26T20:53:28.725Z,22.33
2022-08-26T20:55:59.710Z,22.34
2022-08-26T20:58:26.132Z,22.34
2022-08-26T21:00:52.485Z,22.34
2022-08-26T21:03:18.959Z,22.33
2022-08-26T21:05:45.476Z,22.08
2022-08-26T21:08:12.593Z,21.67
2022-08-26T21:10:39.132Z,21.71
2022-08-26T21:13:06.133Z,21.86
2022-08-26T21:15:32.987Z,21.96
2022-08-26T21:18:00.035Z,22.00
2022-08-26T21:20:26.345Z,22.03
2022-08-26T21:22:52.875Z,22.05
2022-08-26T21:25:19.413Z,22.05
2022-08-26T21:27:47.754Z,22.05
2022-08-26T21:30:15.380Z,22.00
2022-08-26T21:32:41.878Z,21.61
2022-08-26T21:35:09.845Z,21.10
2022-08-26T21:37:36.181Z,20.77
2022-08-26T21:40:04.414Z,20.94
2022-08-26T21:42:32.696Z,21.16
2022-08-26T21:44:59.883Z,21.30
2022-08-26T21:47:26.316Z,21.39
2022-08-26T21:49:53.030Z,21.44
2022-08-26T21:52:20.773Z,21.48
2022-08-26T21:54:49.271Z,21.50
2022-08-26T21:57:16.874Z,21.52
2022-08-26T21:59:43.157Z,21.54
2022-08-26T22:02:10.979Z,21.57
2022-08-26T22:04:37.593Z,21.58
2022-08-26T22:07:04.313Z,21.59
2022-08-26T22:09:31.128Z,21.61
2022-08-26T22:11:58.372Z,21.63
2022-08-26T22:14:29.847Z,21.64
2022-08-26T22:16:58.247Z,21.65
2022-08-26T22:19:25.685Z,21.66
2022-08-26T22:21:53.706Z,21.68
2022-08-26T22:24:22.875Z,21.69
2022-08-26T22:26:49.382Z,21.69
2022-08-26T22:29:16.732Z,21.67
2022-08-26T22:31:43.232Z,21.68
2022-08-26T22:34:12.133Z,21.68
2022-08-26T22:36:43.045Z,21.67
2022-08-26T22:39:16.239Z,21.68
2022-08-26T22:41:43.565Z,21.69
2022-08-26T22:44:11.002Z,21.70
2022-08-26T22:46:37.924Z,21.70
2022-08-26T22:49:05.771Z,21.70
2022-08-26T22:51:32.591Z,21.69
2022-08-26T22:53:58.880Z,21.69
2022-08-26T22:56:25.652Z,21.68
2022-08-26T22:58:52.014Z,21.67
2022-08-26T23:01:18.455Z,21.65
2022-08-26T23:03:45.296Z,21.65
2022-08-26T23:06:11.811Z,21.64
2022-08-26T23:08:38.790Z,21.63
2022-08-26T23:11:09.760Z,21.60
2022-08-26T23:13:36.524Z,21.57
2022-08-26T23:16:06.696Z,21.55
2022-08-26T23:18:33.116Z,21.51
2022-08-26T23:20:59.421Z,21.47
2022-08-26T23:23:26.982Z,21.44
2022-08-26T23:25:55.734Z,21.42
2022-08-26T23:28:22.677Z,21.39
2022-08-26T23:30:49.407Z,21.36
2022-08-26T23:33:15.846Z,21.35
2022-08-26T23:35:42.165Z,21.35
2022-08-26T23:38:09.218Z,21.37
2022-08-26T23:40:38.134Z,21.37
2022-08-26T23:43:06.794Z,21.37
2022-08-26T23:45:33.963Z,21.37
2022-08-26T23:48:00.687Z,21.38
2022-08-26T23:50:48.199Z,21.38
2022-08-26T23:53:19.237Z,21.36
2022-08-26T23:55:48.947Z,21.36
2022-08-26T23:58:16.937Z,21.35
